sensor_id;sensor_type;location;lat;lon;timestamp;P1;durP1;ratioP1;P2;durP2;ratioP2
36551;SDS011;22559;54.176;12.102;2023-06-19T00:01:46;11.20;;;9.90;;
36551;SDS011;22559;54.176;12.102;2023-06-19T00:04:12;11.17;;;10.07;;
36551;SDS011;22559;54.176;12.102;2023-06-19T00:06:38;11.77;;;10.33;;
36551;SDS011;22559;54.176;12.102;2023-06-19T00:09:03;13.87;;;9.73;;
36551;SDS011;22559;54.176;12.102;2023-06-19T00:11:30;10.90;;;9.90;;
36551;SDS011;22559;54.176;12.102;2023-06-19T00:13:55;11.57;;;10.40;;
36551;SDS011;22559;54.176;12.102;2023-06-19T00:16:21;10.33;;;9.23;;
36551;SDS011;22559;54.176;12.102;2023-06-19T00:18:50;11.93;;;10.30;;
36551;SDS011;22559;54.176;12.102;2023-06-19T00:21:16;12.13;;;10.80;;
36551;SDS011;22559;54.176;12.102;2023-06-19T00:23:42;15.10;;;10.60;;
36551;SDS011;22559;54.176;12.102;2023-06-19T00:26:08;11.87;;;10.73;;
36551;SDS011;22559;54.176;12.102;2023-06-19T00:28:33;12.63;;;10.03;;
36551;SDS011;22559;54.176;12.102;2023-06-19T00:30:59;12.07;;;10.67;;
36551;SDS011;22559;54.176;12.102;2023-06-19T00:33:25;11.93;;;10.83;;
36551;SDS011;22559;54.176;12.102;2023-06-19T00:35:51;11.73;;;10.53;;
36551;SDS011;22559;54.176;12.102;2023-06-19T00:38:17;11.17;;;9.97;;
36551;SDS011;22559;54.176;12.102;2023-06-19T00:40:42;12.93;;;11.20;;
36551;SDS011;22559;54.176;12.102;2023-06-19T00:43:08;11.67;;;10.33;;
36551;SDS011;22559;54.176;12.102;2023-06-19T00:45:34;12.87;;;11.40;;
36551;SDS011;22559;54.176;12.102;2023-06-19T00:47:59;14.23;;;11.50;;
36551;SDS011;22559;54.176;12.102;2023-06-19T00:50:26;11.93;;;10.53;;
36551;SDS011;22559;54.176;12.102;2023-06-19T00:52:54;12.30;;;10.60;;
36551;SDS011;22559;54.176;12.102;2023-06-19T00:55:20;12.20;;;10.97;;
36551;SDS011;22559;54.176;12.102;2023-06-19T00:57:46;13.63;;;11.60;;
36551;SDS011;22559;54.176;12.102;2023-06-19T01:00:13;12.93;;;11.50;;
36551;SDS011;22559;54.176;12.102;2023-06-19T01:02:39;14.60;;;12.30;;
36551;SDS011;22559;54.176;12.102;2023-06-19T01:05:05;14.83;;;11.73;;
36551;SDS011;22559;54.176;12.102;2023-06-19T01:10:28;14.23;;;12.23;;
36551;SDS011;22559;54.176;12.102;2023-06-19T01:13:00;14.60;;;12.17;;
36551;SDS011;22559;54.176;12.102;2023-06-19T01:15:31;14.20;;;12.50;;
36551;SDS011;22559;54.176;12.102;2023-06-19T01:17:57;14.70;;;12.10;;
36551;SDS011;22559;54.176;12.102;2023-06-19T01:20:25;14.07;;;12.20;;
36551;SDS011;22559;54.176;12.102;2023-06-19T01:22:51;16.93;;;12.77;;
36551;SDS011;22559;54.176;12.102;2023-06-19T01:25:16;14.73;;;12.53;;
36551;SDS011;22559;54.176;12.102;2023-06-19T01:27:42;15.87;;;11.90;;
36551;SDS011;22559;54.176;12.102;2023-06-19T01:30:08;13.63;;;12.07;;
36551;SDS011;22559;54.176;12.102;2023-06-19T01:35:22;14.97;;;12.30;;
36551;SDS011;22559;54.176;12.102;2023-06-19T01:37:50;16.17;;;12.23;;
36551;SDS011;22559;54.176;12.102;2023-06-19T01:40:18;15.90;;;13.63;;
36551;SDS011;22559;54.176;12.102;2023-06-19T01:42:46;14.20;;;12.67;;
36551;SDS011;22559;54.176;12.102;2023-06-19T01:45:13;16.37;;;12.70;;
36551;SDS011;22559;54.176;12.102;2023-06-19T01:47:39;14.47;;;12.47;;
36551;SDS011;22559;54.176;12.102;2023-06-19T01:50:05;12.80;;;11.30;;
36551;SDS011;22559;54.176;12.102;2023-06-19T01:52:31;14.53;;;12.33;;
36551;SDS011;22559;54.176;12.102;2023-06-19T01:54:56;14.47;;;12.47;;
36551;SDS011;22559;54.176;12.102;2023-06-19T01:57:22;13.73;;;12.33;;
36551;SDS011;22559;54.176;12.102;2023-06-19T01:59:48;15.73;;;11.90;;
36551;SDS011;22559;54.176;12.102;2023-06-19T02:02:13;13.97;;;11.67;;
36551;SDS011;22559;54.176;12.102;2023-06-19T02:04:39;15.37;;;11.43;;
36551;SDS011;22559;54.176;12.102;2023-06-19T02:07:05;13.60;;;12.13;;
36551;SDS011;22559;54.176;12.102;2023-06-19T02:09:30;13.00;;;11.10;;
36551;SDS011;22559;54.176;12.102;2023-06-19T02:11:56;12.37;;;10.93;;
36551;SDS011;22559;54.176;12.102;2023-06-19T02:14:22;13.43;;;11.60;;
36551;SDS011;22559;54.176;12.102;2023-06-19T02:16:48;12.93;;;11.53;;
36551;SDS011;22559;54.176;12.102;2023-06-19T02:19:13;18.57;;;13.50;;
36551;SDS011;22559;54.176;12.102;2023-06-19T02:21:39;14.93;;;13.17;;
36551;SDS011;22559;54.176;12.102;2023-06-19T02:24:05;15.87;;;13.07;;
36551;SDS011;22559;54.176;12.102;2023-06-19T02:26:31;14.67;;;12.93;;
36551;SDS011;22559;54.176;12.102;2023-06-19T02:28:56;19.90;;;13.73;;
36551;SDS011;22559;54.176;12.102;2023-06-19T02:31:22;15.30;;;13.70;;
36551;SDS011;22559;54.176;12.102;2023-06-19T02:33:48;18.50;;;15.03;;
36551;SDS011;22559;54.176;12.102;2023-06-19T02:36:17;19.67;;;14.83;;
36551;SDS011;22559;54.176;12.102;2023-06-19T02:38:47;15.47;;;13.40;;
36551;SDS011;22559;54.176;12.102;2023-06-19T02:41:15;15.10;;;13.50;;
36551;SDS011;22559;54.176;12.102;2023-06-19T02:43:42;15.90;;;13.20;;
36551;SDS011;22559;54.176;12.102;2023-06-19T02:46:09;16.57;;;13.27;;
36551;SDS011;22559;54.176;12.102;2023-06-19T02:48:34;18.43;;;14.43;;
36551;SDS011;22559;54.176;12.102;2023-06-19T02:51:00;14.80;;;12.80;;
36551;SDS011;22559;54.176;12.102;2023-06-19T02:53:26;14.27;;;12.77;;
36551;SDS011;22559;54.176;12.102;2023-06-19T02:55:51;16.43;;;12.30;;
36551;SDS011;22559;54.176;12.102;2023-06-19T02:58:17;15.67;;;12.73;;
36551;SDS011;22559;54.176;12.102;2023-06-19T03:00:43;15.60;;;13.10;;
36551;SDS011;22559;54.176;12.102;2023-06-19T03:03:09;15.43;;;13.20;;
36551;SDS011;22559;54.176;12.102;2023-06-19T03:05:35;14.80;;;12.73;;
36551;SDS011;22559;54.176;12.102;2023-06-19T03:08:01;14.70;;;12.53;;
36551;SDS011;22559;54.176;12.102;2023-06-19T03:10:26;16.00;;;12.83;;
36551;SDS011;22559;54.176;12.102;2023-06-19T03:12:52;16.23;;;13.20;;
36551;SDS011;22559;54.176;12.102;2023-06-19T03:15:17;18.23;;;13.77;;
36551;SDS011;22559;54.176;12.102;2023-06-19T03:17:43;14.37;;;12.57;;
36551;SDS011;22559;54.176;12.102;2023-06-19T03:20:09;13.30;;;11.90;;
36551;SDS011;22559;54.176;12.102;2023-06-19T03:22:38;14.10;;;12.57;;
36551;SDS011;22559;54.176;12.102;2023-06-19T03:25:04;18.33;;;12.03;;
36551;SDS011;22559;54.176;12.102;2023-06-19T03:27:31;14.70;;;12.93;;
36551;SDS011;22559;54.176;12.102;2023-06-19T03:29:57;16.30;;;12.93;;
36551;SDS011;22559;54.176;12.102;2023-06-19T03:32:22;15.70;;;12.50;;
36551;SDS011;22559;54.176;12.102;2023-06-19T03:34:48;15.43;;;12.77;;
36551;SDS011;22559;54.176;12.102;2023-06-19T03:37:13;14.77;;;13.17;;
36551;SDS011;22559;54.176;12.102;2023-06-19T03:39:39;18.67;;;13.10;;
36551;SDS011;22559;54.176;12.102;2023-06-19T03:42:05;16.83;;;12.60;;
36551;SDS011;22559;54.176;12.102;2023-06-19T03:44:31;14.90;;;12.23;;
36551;SDS011;22559;54.176;12.102;2023-06-19T03:46:57;14.40;;;12.90;;
36551;SDS011;22559;54.176;12.102;2023-06-19T03:49:22;13.83;;;12.17;;
36551;SDS011;22559;54.176;12.102;2023-06-19T03:51:48;14.80;;;11.80;;
36551;SDS011;22559;54.176;12.102;2023-06-19T03:54:13;13.23;;;11.53;;
36551;SDS011;22559;54.176;12.102;2023-06-19T03:56:39;13.50;;;12.10;;
36551;SDS011;22559;54.176;12.102;2023-06-19T03:59:05;14.90;;;12.23;;
36551;SDS011;22559;54.176;12.102;2023-06-19T04:01:30;15.03;;;12.13;;
36551;SDS011;22559;54.176;12.102;2023-06-19T04:03:56;14.83;;;12.20;;
36551;SDS011;22559;54.176;12.102;2023-06-19T04:06:22;13.40;;;12.00;;
36551;SDS011;22559;54.176;12.102;2023-06-19T04:08:47;15.10;;;12.00;;
36551;SDS011;22559;54.176;12.102;2023-06-19T04:11:13;12.70;;;10.50;;
36551;SDS011;22559;54.176;12.102;2023-06-19T04:13:39;12.63;;;10.63;;
36551;SDS011;22559;54.176;12.102;2023-06-19T04:16:04;11.87;;;10.37;;
36551;SDS011;22559;54.176;12.102;2023-06-19T04:18:30;13.17;;;10.37;;
36551;SDS011;22559;54.176;12.102;2023-06-19T04:20:56;13.93;;;10.63;;
36551;SDS011;22559;54.176;12.102;2023-06-19T04:23:21;12.10;;;10.73;;
36551;SDS011;22559;54.176;12.102;2023-06-19T04:25:47;12.30;;;11.00;;
36551;SDS011;22559;54.176;12.102;2023-06-19T04:28:13;14.50;;;10.80;;
36551;SDS011;22559;54.176;12.102;2023-06-19T04:30:38;12.67;;;10.80;;
36551;SDS011;22559;54.176;12.102;2023-06-19T04:33:04;11.90;;;10.43;;
36551;SDS011;22559;54.176;12.102;2023-06-19T04:35:31;12.80;;;10.30;;
36551;SDS011;22559;54.176;12.102;2023-06-19T04:37:57;12.30;;;10.23;;
36551;SDS011;22559;54.176;12.102;2023-06-19T04:40:26;12.07;;;10.30;;
36551;SDS011;22559;54.176;12.102;2023-06-19T04:42:52;11.97;;;9.77;;
36551;SDS011;22559;54.176;12.102;2023-06-19T04:45:19;11.87;;;10.37;;
36551;SDS011;22559;54.176;12.102;2023-06-19T04:47:44;11.30;;;9.63;;
36551;SDS011;22559;54.176;12.102;2023-06-19T04:50:10;12.03;;;10.37;;
36551;SDS011;22559;54.176;12.102;2023-06-19T04:52:36;12.33;;;10.77;;
36551;SDS011;22559;54.176;12.102;2023-06-19T04:55:02;12.13;;;10.33;;
36551;SDS011;22559;54.176;12.102;2023-06-19T04:57:34;11.87;;;10.57;;
36551;SDS011;22559;54.176;12.102;2023-06-19T05:00:02;12.80;;;11.50;;
36551;SDS011;22559;54.176;12.102;2023-06-19T05:02:35;12.43;;;10.60;;
36551;SDS011;22559;54.176;12.102;2023-06-19T05:05:01;13.40;;;10.70;;
36551;SDS011;22559;54.176;12.102;2023-06-19T05:07:27;11.33;;;10.23;;
36551;SDS011;22559;54.176;12.102;2023-06-19T05:09:53;10.97;;;9.87;;
36551;SDS011;22559;54.176;12.102;2023-06-19T05:12:19;11.10;;;10.00;;
36551;SDS011;22559;54.176;12.102;2023-06-19T05:14:44;11.20;;;10.03;;
36551;SDS011;22559;54.176;12.102;2023-06-19T05:17:10;11.57;;;10.00;;
36551;SDS011;22559;54.176;12.102;2023-06-19T05:19:36;12.17;;;9.90;;
36551;SDS011;22559;54.176;12.102;2023-06-19T05:22:01;14.30;;;10.53;;
36551;SDS011;22559;54.176;12.102;2023-06-19T05:24:27;11.27;;;10.17;;
36551;SDS011;22559;54.176;12.102;2023-06-19T05:26:52;11.13;;;9.80;;
36551;SDS011;22559;54.176;12.102;2023-06-19T05:29:18;11.57;;;9.97;;
36551;SDS011;22559;54.176;12.102;2023-06-19T05:31:44;12.70;;;9.97;;
36551;SDS011;22559;54.176;12.102;2023-06-19T05:34:09;13.20;;;10.37;;
36551;SDS011;22559;54.176;12.102;2023-06-19T05:36:35;10.63;;;9.53;;
36551;SDS011;22559;54.176;12.102;2023-06-19T05:39:01;10.40;;;9.37;;
36551;SDS011;22559;54.176;12.102;2023-06-19T05:41:26;10.27;;;9.30;;
36551;SDS011;22559;54.176;12.102;2023-06-19T05:43:52;10.17;;;9.07;;
36551;SDS011;22559;54.176;12.102;2023-06-19T05:46:17;9.30;;;8.30;;
36551;SDS011;22559;54.176;12.102;2023-06-19T05:48:43;10.77;;;9.67;;
36551;SDS011;22559;54.176;12.102;2023-06-19T05:51:08;10.27;;;8.80;;
36551;SDS011;22559;54.176;12.102;2023-06-19T05:53:34;11.27;;;9.50;;
36551;SDS011;22559;54.176;12.102;2023-06-19T05:56:00;9.25;;;8.43;;
36551;SDS011;22559;54.176;12.102;2023-06-19T05:58:26;9.27;;;8.18;;
36551;SDS011;22559;54.176;12.102;2023-06-19T06:00:51;9.55;;;8.45;;
36551;SDS011;22559;54.176;12.102;2023-06-19T06:03:23;10.07;;;7.90;;
36551;SDS011;22559;54.176;12.102;2023-06-19T06:05:50;9.07;;;7.65;;
36551;SDS011;22559;54.176;12.102;2023-06-19T06:08:16;9.73;;;8.32;;
36551;SDS011;22559;54.176;12.102;2023-06-19T06:10:41;8.80;;;7.90;;
36551;SDS011;22559;54.176;12.102;2023-06-19T06:13:07;10.68;;;8.52;;
36551;SDS011;22559;54.176;12.102;2023-06-19T06:15:33;8.40;;;7.60;;
36551;SDS011;22559;54.176;12.102;2023-06-19T06:17:58;8.20;;;7.40;;
36551;SDS011;22559;54.176;12.102;2023-06-19T06:20:24;8.82;;;7.43;;
36551;SDS011;22559;54.176;12.102;2023-06-19T06:22:50;9.25;;;7.78;;
36551;SDS011;22559;54.176;12.102;2023-06-19T06:25:16;11.52;;;7.82;;
36551;SDS011;22559;54.176;12.102;2023-06-19T06:27:41;8.60;;;7.47;;
36551;SDS011;22559;54.176;12.102;2023-06-19T06:30:07;8.40;;;7.60;;
36551;SDS011;22559;54.176;12.102;2023-06-19T06:32:33;8.68;;;7.18;;
36551;SDS011;22559;54.176;12.102;2023-06-19T06:34:59;8.32;;;7.32;;
36551;SDS011;22559;54.176;12.102;2023-06-19T06:37:24;27.17;;;19.10;;
36551;SDS011;22559;54.176;12.102;2023-06-19T06:39:50;10.63;;;8.52;;
36551;SDS011;22559;54.176;12.102;2023-06-19T06:42:17;8.55;;;7.53;;
36551;SDS011;22559;54.176;12.102;2023-06-19T06:44:44;8.45;;;7.15;;
36551;SDS011;22559;54.176;12.102;2023-06-19T06:47:10;7.72;;;6.88;;
36551;SDS011;22559;54.176;12.102;2023-06-19T06:49:36;7.95;;;7.20;;
36551;SDS011;22559;54.176;12.102;2023-06-19T06:52:05;9.05;;;6.60;;
36551;SDS011;22559;54.176;12.102;2023-06-19T06:54:31;8.27;;;7.55;;
36551;SDS011;22559;54.176;12.102;2023-06-19T06:56:57;8.82;;;7.22;;
36551;SDS011;22559;54.176;12.102;2023-06-19T06:59:24;8.13;;;7.30;;
36551;SDS011;22559;54.176;12.102;2023-06-19T07:01:52;11.43;;;7.30;;
36551;SDS011;22559;54.176;12.102;2023-06-19T07:04:18;7.60;;;6.90;;
36551;SDS011;22559;54.176;12.102;2023-06-19T07:06:43;8.23;;;7.40;;
36551;SDS011;22559;54.176;12.102;2023-06-19T07:09:09;7.95;;;7.25;;
36551;SDS011;22559;54.176;12.102;2023-06-19T07:11:35;7.55;;;6.85;;
36551;SDS011;22559;54.176;12.102;2023-06-19T07:14:01;8.05;;;7.32;;
36551;SDS011;22559;54.176;12.102;2023-06-19T07:16:27;8.48;;;7.45;;
36551;SDS011;22559;54.176;12.102;2023-06-19T07:18:53;7.45;;;6.85;;
36551;SDS011;22559;54.176;12.102;2023-06-19T07:21:19;7.30;;;6.65;;
36551;SDS011;22559;54.176;12.102;2023-06-19T07:23:45;9.77;;;7.18;;
36551;SDS011;22559;54.176;12.102;2023-06-19T07:26:13;7.65;;;6.95;;
36551;SDS011;22559;54.176;12.102;2023-06-19T07:28:39;7.90;;;7.20;;
36551;SDS011;22559;54.176;12.102;2023-06-19T07:31:05;9.70;;;7.55;;
36551;SDS011;22559;54.176;12.102;2023-06-19T07:33:30;7.60;;;6.90;;
36551;SDS011;22559;54.176;12.102;2023-06-19T07:35:56;8.45;;;7.10;;
36551;SDS011;22559;54.176;12.102;2023-06-19T07:38:22;8.07;;;7.28;;
36551;SDS011;22559;54.176;12.102;2023-06-19T07:40:48;8.10;;;7.30;;
36551;SDS011;22559;54.176;12.102;2023-06-19T07:43:14;8.45;;;7.57;;
36551;SDS011;22559;54.176;12.102;2023-06-19T07:45:40;8.65;;;7.50;;
36551;SDS011;22559;54.176;12.102;2023-06-19T07:48:05;8.45;;;7.20;;
36551;SDS011;22559;54.176;12.102;2023-06-19T07:50:31;8.40;;;7.60;;
36551;SDS011;22559;54.176;12.102;2023-06-19T07:52:57;8.30;;;7.47;;
36551;SDS011;22559;54.176;12.102;2023-06-19T07:55:23;11.63;;;9.60;;
36551;SDS011;22559;54.176;12.102;2023-06-19T07:57:48;7.90;;;7.20;;
36551;SDS011;22559;54.176;12.102;2023-06-19T08:00:14;9.25;;;7.57;;
36551;SDS011;22559;54.176;12.102;2023-06-19T08:02:41;8.23;;;7.47;;
36551;SDS011;22559;54.176;12.102;2023-06-19T08:05:07;10.13;;;8.50;;
36551;SDS011;22559;54.176;12.102;2023-06-19T08:07:34;9.40;;;7.93;;
36551;SDS011;22559;54.176;12.102;2023-06-19T08:10:00;38.92;;;26.55;;
36551;SDS011;22559;54.176;12.102;2023-06-19T08:12:28;10.13;;;8.93;;
36551;SDS011;22559;54.176;12.102;2023-06-19T08:14:54;10.35;;;7.78;;
36551;SDS011;22559;54.176;12.102;2023-06-19T08:17:20;8.30;;;7.55;;
36551;SDS011;22559;54.176;12.102;2023-06-19T08:19:46;9.15;;;8.25;;
36551;SDS011;22559;54.176;12.102;2023-06-19T08:22:12;9.23;;;8.32;;
36551;SDS011;22559;54.176;12.102;2023-06-19T08:24:37;8.73;;;7.82;;
36551;SDS011;22559;54.176;12.102;2023-06-19T08:27:05;8.82;;;7.93;;
36551;SDS011;22559;54.176;12.102;2023-06-19T08:29:30;8.82;;;7.97;;
36551;SDS011;22559;54.176;12.102;2023-06-19T08:31:56;8.40;;;7.55;;
36551;SDS011;22559;54.176;12.102;2023-06-19T08:34:21;9.30;;;8.40;;
36551;SDS011;22559;54.176;12.102;2023-06-19T08:36:47;10.45;;;8.68;;
36551;SDS011;22559;54.176;12.102;2023-06-19T08:39:13;10.93;;;8.57;;
36551;SDS011;22559;54.176;12.102;2023-06-19T08:41:39;9.77;;;8.75;;
36551;SDS011;22559;54.176;12.102;2023-06-19T08:44:06;10.18;;;9.07;;
36551;SDS011;22559;54.176;12.102;2023-06-19T08:46:32;9.70;;;8.75;;
36551;SDS011;22559;54.176;12.102;2023-06-19T08:48:59;10.50;;;9.50;;
36551;SDS011;22559;54.176;12.102;2023-06-19T08:51:26;10.70;;;9.60;;
36551;SDS011;22559;54.176;12.102;2023-06-19T08:54:01;9.77;;;8.85;;
36551;SDS011;22559;54.176;12.102;2023-06-19T08:56:29;10.80;;;9.70;;
36551;SDS011;22559;54.176;12.102;2023-06-19T08:59:07;11.45;;;9.57;;
36551;SDS011;22559;54.176;12.102;2023-06-19T09:01:37;10.65;;;9.65;;
36551;SDS011;22559;54.176;12.102;2023-06-19T09:04:12;10.45;;;9.40;;
36551;SDS011;22559;54.176;12.102;2023-06-19T09:06:46;11.13;;;9.80;;
36551;SDS011;22559;54.176;12.102;2023-06-19T09:09:13;12.75;;;10.77;;
36551;SDS011;22559;54.176;12.102;2023-06-19T09:11:40;11.18;;;9.98;;
36551;SDS011;22559;54.176;12.102;2023-06-19T09:14:08;13.70;;;10.50;;
36551;SDS011;22559;54.176;12.102;2023-06-19T09:16:39;11.88;;;10.68;;
36551;SDS011;22559;54.176;12.102;2023-06-19T09:19:06;12.25;;;10.32;;
36551;SDS011;22559;54.176;12.102;2023-06-19T09:21:34;11.85;;;10.65;;
36551;SDS011;22559;54.176;12.102;2023-06-19T09:24:07;13.38;;;10.20;;
36551;SDS011;22559;54.176;12.102;2023-06-19T09:26:33;12.00;;;10.52;;
36551;SDS011;22559;54.176;12.102;2023-06-19T09:29:14;12.30;;;10.82;;
36551;SDS011;22559;54.176;12.102;2023-06-19T09:31:44;14.13;;;10.90;;
36551;SDS011;22559;54.176;12.102;2023-06-19T09:34:09;13.40;;;10.77;;
36551;SDS011;22559;54.176;12.102;2023-06-19T09:36:35;16.13;;;11.10;;
36551;SDS011;22559;54.176;12.102;2023-06-19T09:39:04;12.65;;;10.85;;
36551;SDS011;22559;54.176;12.102;2023-06-19T09:41:29;15.57;;;11.15;;
36551;SDS011;22559;54.176;12.102;2023-06-19T09:43:56;12.60;;;10.27;;
36551;SDS011;22559;54.176;12.102;2023-06-19T09:46:29;13.50;;;10.70;;
36551;SDS011;22559;54.176;12.102;2023-06-19T09:48:58;14.00;;;10.85;;
36551;SDS011;22559;54.176;12.102;2023-06-19T09:51:30;11.75;;;10.55;;
36551;SDS011;22559;54.176;12.102;2023-06-19T09:53:58;14.18;;;10.98;;
36551;SDS011;22559;54.176;12.102;2023-06-19T09:56:26;14.55;;;11.57;;
36551;SDS011;22559;54.176;12.102;2023-06-19T09:58:53;18.92;;;13.45;;
36551;SDS011;22559;54.176;12.102;2023-06-19T10:01:21;15.05;;;13.55;;
36551;SDS011;22559;54.176;12.102;2023-06-19T10:03:48;13.98;;;12.50;;
36551;SDS011;22559;54.176;12.102;2023-06-19T10:06:15;13.27;;;11.32;;
36551;SDS011;22559;54.176;12.102;2023-06-19T10:08:42;12.35;;;11.13;;
36551;SDS011;22559;54.176;12.102;2023-06-19T10:11:12;14.38;;;12.18;;
36551;SDS011;22559;54.176;12.102;2023-06-19T10:13:40;15.88;;;11.85;;
36551;SDS011;22559;54.176;12.102;2023-06-19T10:16:22;14.98;;;12.35;;
36551;SDS011;22559;54.176;12.102;2023-06-19T10:18:48;14.15;;;11.75;;
36551;SDS011;22559;54.176;12.102;2023-06-19T10:21:15;14.80;;;11.98;;
36551;SDS011;22559;54.176;12.102;2023-06-19T10:23:42;14.43;;;12.93;;
36551;SDS011;22559;54.176;12.102;2023-06-19T10:26:08;13.43;;;12.00;;
36551;SDS011;22559;54.176;12.102;2023-06-19T10:28:45;14.18;;;12.45;;
36551;SDS011;22559;54.176;12.102;2023-06-19T10:31:12;13.48;;;12.18;;
36551;SDS011;22559;54.176;12.102;2023-06-19T10:33:37;15.30;;;13.52;;
36551;SDS011;22559;54.176;12.102;2023-06-19T10:36:17;14.15;;;12.75;;
36551;SDS011;22559;54.176;12.102;2023-06-19T10:38:44;15.07;;;13.48;;
36551;SDS011;22559;54.176;12.102;2023-06-19T10:41:22;14.75;;;13.25;;
36551;SDS011;22559;54.176;12.102;2023-06-19T10:44:02;16.95;;;14.38;;
36551;SDS011;22559;54.176;12.102;2023-06-19T10:46:37;15.02;;;13.43;;
36551;SDS011;22559;54.176;12.102;2023-06-19T10:49:04;15.82;;;14.23;;
36551;SDS011;22559;54.176;12.102;2023-06-19T10:51:34;16.60;;;13.75;;
36551;SDS011;22559;54.176;12.102;2023-06-19T10:54:01;16.25;;;14.32;;
36551;SDS011;22559;54.176;12.102;2023-06-19T10:56:27;14.95;;;13.52;;
36551;SDS011;22559;54.176;12.102;2023-06-19T10:58:56;15.20;;;13.70;;
36551;SDS011;22559;54.176;12.102;2023-06-19T11:01:27;15.45;;;13.90;;
36551;SDS011;22559;54.176;12.102;2023-06-19T11:04:01;16.00;;;14.30;;
36551;SDS011;22559;54.176;12.102;2023-06-19T11:06:28;15.20;;;13.68;;
36551;SDS011;22559;54.176;12.102;2023-06-19T11:08:54;15.57;;;13.98;;
36551;SDS011;22559;54.176;12.102;2023-06-19T11:11:21;16.58;;;14.65;;
36551;SDS011;22559;54.176;12.102;2023-06-19T11:13:47;19.20;;;14.18;;
36551;SDS011;22559;54.176;12.102;2023-06-19T11:16:14;15.13;;;13.63;;
36551;SDS011;22559;54.176;12.102;2023-06-19T11:18:40;13.93;;;12.63;;
36551;SDS011;22559;54.176;12.102;2023-06-19T11:21:05;15.57;;;14.07;;
36551;SDS011;22559;54.176;12.102;2023-06-19T11:23:31;14.70;;;13.30;;
36551;SDS011;22559;54.176;12.102;2023-06-19T11:26:03;14.80;;;13.30;;
36551;SDS011;22559;54.176;12.102;2023-06-19T11:28:30;15.05;;;13.55;;
36551;SDS011;22559;54.176;12.102;2023-06-19T11:30:59;14.75;;;13.35;;
36551;SDS011;22559;54.176;12.102;2023-06-19T11:33:29;14.68;;;13.15;;
36551;SDS011;22559;54.176;12.102;2023-06-19T11:35:58;14.50;;;13.10;;
36551;SDS011;22559;54.176;12.102;2023-06-19T11:38:25;13.80;;;12.40;;
36551;SDS011;22559;54.176;12.102;2023-06-19T11:40:52;13.88;;;12.48;;
36551;SDS011;22559;54.176;12.102;2023-06-19T11:43:26;14.05;;;12.68;;
36551;SDS011;22559;54.176;12.102;2023-06-19T11:45:53;14.15;;;12.85;;
36551;SDS011;22559;54.176;12.102;2023-06-19T11:48:23;13.82;;;12.52;;
36551;SDS011;22559;54.176;12.102;2023-06-19T11:50:52;14.95;;;13.35;;
36551;SDS011;22559;54.176;12.102;2023-06-19T11:53:22;14.70;;;13.20;;
36551;SDS011;22559;54.176;12.102;2023-06-19T11:55:49;13.75;;;12.25;;
36551;SDS011;22559;54.176;12.102;2023-06-19T11:58:15;13.68;;;12.13;;
36551;SDS011;22559;54.176;12.102;2023-06-19T12:00:41;13.45;;;11.57;;
36551;SDS011;22559;54.176;12.102;2023-06-19T12:03:08;15.50;;;11.55;;
36551;SDS011;22559;54.176;12.102;2023-06-19T12:05:34;16.05;;;11.30;;
36551;SDS011;22559;54.176;12.102;2023-06-19T12:08:00;11.98;;;10.77;;
36551;SDS011;22559;54.176;12.102;2023-06-19T12:10:28;11.90;;;10.70;;
36551;SDS011;22559;54.176;12.102;2023-06-19T12:12:53;12.23;;;10.70;;
36551;SDS011;22559;54.176;12.102;2023-06-19T12:15:19;11.32;;;10.20;;
36551;SDS011;22559;54.176;12.102;2023-06-19T12:17:45;10.55;;;9.45;;
36551;SDS011;22559;54.176;12.102;2023-06-19T12:20:11;11.00;;;9.90;;
36551;SDS011;22559;54.176;12.102;2023-06-19T12:22:39;10.40;;;9.40;;
36551;SDS011;22559;54.176;12.102;2023-06-19T12:25:05;11.32;;;10.25;;
36551;SDS011;22559;54.176;12.102;2023-06-19T12:27:31;10.77;;;9.68;;
36551;SDS011;22559;54.176;12.102;2023-06-19T12:29:57;11.07;;;9.90;;
36551;SDS011;22559;54.176;12.102;2023-06-19T12:32:23;12.80;;;9.95;;
36551;SDS011;22559;54.176;12.102;2023-06-19T12:34:49;10.23;;;9.32;;
36551;SDS011;22559;54.176;12.102;2023-06-19T12:37:18;11.85;;;9.70;;
36551;SDS011;22559;54.176;12.102;2023-06-19T12:39:45;11.02;;;9.75;;
36551;SDS011;22559;54.176;12.102;2023-06-19T12:42:11;10.52;;;9.43;;
36551;SDS011;22559;54.176;12.102;2023-06-19T12:44:40;11.85;;;9.55;;
36551;SDS011;22559;54.176;12.102;2023-06-19T12:47:07;11.23;;;10.07;;
36551;SDS011;22559;54.176;12.102;2023-06-19T12:49:32;10.23;;;9.13;;
36551;SDS011;22559;54.176;12.102;2023-06-19T12:51:58;10.55;;;9.55;;
36551;SDS011;22559;54.176;12.102;2023-06-19T12:54:25;10.75;;;9.65;;
36551;SDS011;22559;54.176;12.102;2023-06-19T12:56:50;11.60;;;9.68;;
36551;SDS011;22559;54.176;12.102;2023-06-19T12:59:16;9.95;;;9.05;;
36551;SDS011;22559;54.176;12.102;2023-06-19T13:01:42;10.40;;;9.48;;
36551;SDS011;22559;54.176;12.102;2023-06-19T13:04:08;10.00;;;9.00;;
36551;SDS011;22559;54.176;12.102;2023-06-19T13:06:35;10.10;;;9.18;;
36551;SDS011;22559;54.176;12.102;2023-06-19T13:09:01;16.58;;;14.90;;
36551;SDS011;22559;54.176;12.102;2023-06-19T13:11:27;20.73;;;16.83;;
36551;SDS011;22559;54.176;12.102;2023-06-19T13:13:53;14.15;;;12.65;;
36551;SDS011;22559;54.176;12.102;2023-06-19T13:16:18;9.30;;;8.50;;
36551;SDS011;22559;54.176;12.102;2023-06-19T13:18:44;9.60;;;8.70;;
36551;SDS011;22559;54.176;12.102;2023-06-19T13:21:13;8.75;;;7.85;;
36551;SDS011;22559;54.176;12.102;2023-06-19T13:23:40;9.02;;;8.23;;
36551;SDS011;22559;54.176;12.102;2023-06-19T13:26:05;8.82;;;8.02;;
36551;SDS011;22559;54.176;12.102;2023-06-19T13:28:32;11.98;;;8.43;;
36551;SDS011;22559;54.176;12.102;2023-06-19T13:30:57;9.10;;;8.30;;
36551;SDS011;22559;54.176;12.102;2023-06-19T13:33:24;9.00;;;8.15;;
36551;SDS011;22559;54.176;12.102;2023-06-19T13:35:50;9.13;;;8.23;;
36551;SDS011;22559;54.176;12.102;2023-06-19T13:38:16;8.88;;;8.00;;
36551;SDS011;22559;54.176;12.102;2023-06-19T13:40:42;9.90;;;8.70;;
36551;SDS011;22559;54.176;12.102;2023-06-19T13:43:08;9.18;;;8.38;;
36551;SDS011;22559;54.176;12.102;2023-06-19T13:45:33;9.02;;;8.30;;
36551;SDS011;22559;54.176;12.102;2023-06-19T13:48:00;9.07;;;8.18;;
36551;SDS011;22559;54.176;12.102;2023-06-19T13:50:26;8.80;;;8.00;;
36551;SDS011;22559;54.176;12.102;2023-06-19T13:52:52;9.68;;;8.15;;
36551;SDS011;22559;54.176;12.102;2023-06-19T13:55:19;8.82;;;8.13;;
36551;SDS011;22559;54.176;12.102;2023-06-19T13:57:45;9.07;;;7.90;;
36551;SDS011;22559;54.176;12.102;2023-06-19T14:00:11;9.30;;;8.48;;
36551;SDS011;22559;54.176;12.102;2023-06-19T14:02:38;8.95;;;8.15;;
36551;SDS011;22559;54.176;12.102;2023-06-19T14:05:04;8.85;;;8.05;;
36551;SDS011;22559;54.176;12.102;2023-06-19T14:07:31;8.82;;;7.93;;
36551;SDS011;22559;54.176;12.102;2023-06-19T14:09:57;9.15;;;8.25;;
36551;SDS011;22559;54.176;12.102;2023-06-19T14:12:23;9.18;;;8.32;;
36551;SDS011;22559;54.176;12.102;2023-06-19T14:14:48;9.10;;;8.20;;
36551;SDS011;22559;54.176;12.102;2023-06-19T14:17:14;8.93;;;8.13;;
36551;SDS011;22559;54.176;12.102;2023-06-19T14:19:40;9.05;;;8.25;;